Time;durP1;ratioP1;P1;durP2;ratioP2;P2;SDS_P1;SDS_P2;PMS_P1;PMS_P2;Temp;Humidity;BMP_temperature;BMP_pressure;BME280_temperature;BME280_humidity;BME280_pressure;Samples;Min_cycle;Max_cycle;Signal;HPM_P1;HPM_P2
2021/07/07 00:01:15;;;;;;;11.55;4.38;;;;;;;19.97;52.08;100661.56;4825674;29;20074;-61
2021/07/07 00:03:43;;;;;;;12.00;3.45;;;;;;;19.89;51.92;100665.44;4807847;29;20054;-62
2021/07/07 00:06:10;;;;;;;12.63;2.72;;;;;;;19.88;52.04;100667.41;4825134;29;20050;-61
2021/07/07 00:08:37;;;;;;;10.80;2.78;;;;;;;19.87;51.89;100665.00;4825620;29;20058;-61
2021/07/07 00:11:04;;;;;;;12.02;2.88;;;;;;;19.94;51.47;100668.72;4825231;29;20061;-62
2021/07/07 00:13:32;;;;;;;11.93;2.80;;;;;;;19.98;51.74;100671.53;4825053;29;20057;-62
2021/07/07 00:15:59;;;;;;;10.27;3.13;;;;;;;19.82;52.50;100668.13;4824436;29;20054;-61
2021/07/07 00:18:27;;;;;;;11.27;3.00;;;;;;;19.84;51.72;100674.94;4825223;29;20077;-61
2021/07/07 00:20:55;;;;;;;10.60;2.63;;;;;;;19.89;52.17;100673.81;4825839;29;20054;-61
2021/07/07 00:23:27;;;;;;;13.80;6.30;;;;;;;19.72;52.74;100680.75;4826228;29;20065;-62
2021/07/07 00:25:55;;;;;;;11.32;4.20;;;;;;;19.87;52.33;100677.00;4825724;29;20054;-62
2021/07/07 00:28:23;;;;;;;12.73;2.85;;;;;;;19.77;52.66;100677.63;4824270;29;20061;-61
2021/07/07 00:30:52;;;;;;;11.25;3.40;;;;;;;19.67;53.04;100686.66;4824833;29;20065;-60
2021/07/07 00:33:20;;;;;;;7.82;2.65;;;;;;;19.73;53.20;100687.97;4825862;29;20065;-60
2021/07/07 00:35:47;;;;;;;14.23;2.22;;;;;;;19.75;53.52;100685.56;4826163;29;20069;-60
2021/07/07 00:38:15;;;;;;;13.23;2.60;;;;;;;19.71;53.13;100695.91;4826333;29;20055;-60
2021/07/07 00:40:43;;;;;;;9.57;2.53;;;;;;;19.75;53.32;100690.38;4826344;29;20054;-61
2021/07/07 00:43:13;;;;;;;15.23;2.85;;;;;;;19.62;53.59;100686.16;4826187;29;20058;-62
2021/07/07 00:45:40;;;;;;;10.75;2.75;;;;;;;19.66;53.84;100687.84;4825465;29;20058;-60
2021/07/07 00:48:08;;;;;;;11.70;1.98;;;;;;;19.65;54.02;100685.44;4824581;29;20066;-61
2021/07/07 00:50:35;;;;;;;12.13;2.38;;;;;;;19.65;53.94;100685.44;4825975;29;20054;-61
2021/07/07 00:53:03;;;;;;;13.32;2.50;;;;;;;19.56;54.30;100687.69;4826765;29;20054;-61
2021/07/07 00:55:32;;;;;;;11.18;2.78;;;;;;;19.46;54.69;100685.50;4800162;29;20055;-62
2021/07/07 00:58:00;;;;;;;10.48;2.22;;;;;;;19.53;54.52;100688.41;4826298;29;20058;-62
2021/07/07 01:00:28;;;;;;;12.35;2.60;;;;;;;19.41;55.05;100691.41;4826319;29;20054;-61
2021/07/07 01:02:58;;;;;;;13.50;2.67;;;;;;;19.52;54.66;100689.59;4824544;29;20119;-62
2021/07/07 01:05:25;;;;;;;9.07;2.10;;;;;;;19.33;55.07;100684.91;4826075;29;20054;-61
2021/07/07 01:07:52;;;;;;;10.82;2.92;;;;;;;19.34;55.10;100686.50;4825508;29;20057;-61
2021/07/07 01:10:20;;;;;;;7.90;2.60;;;;;;;19.44;55.24;100685.88;4826132;29;20051;-61
2021/07/07 01:12:48;;;;;;;11.32;2.45;;;;;;;19.50;54.75;100681.59;4826461;29;20417;-61
2021/07/07 01:15:18;;;;;;;11.82;2.33;;;;;;;19.63;54.68;100687.78;4825729;29;20066;-64
2021/07/07 01:17:46;;;;;;;10.00;2.50;;;;;;;19.38;55.46;100690.16;4808538;29;20050;-62
2021/07/07 01:20:18;;;;;;;10.48;2.60;;;;;;;19.17;55.85;100686.97;4825216;29;20050;-60
2021/07/07 01:22:46;;;;;;;11.23;3.03;;;;;;;19.42;55.42;100687.44;4823652;29;20061;-62
2021/07/07 01:25:14;;;;;;;16.48;2.78;;;;;;;19.32;55.39;100690.88;4825507;29;20066;-62
2021/07/07 01:27:43;;;;;;;12.52;2.50;;;;;;;19.24;56.06;100681.50;4823579;29;20066;-60
2021/07/07 01:30:14;;;;;;;9.65;2.47;;;;;;;19.26;56.24;100686.72;4825819;29;20157;-61
2021/07/07 01:32:42;;;;;;;10.63;2.55;;;;;;;19.02;56.56;100677.53;4823919;29;20121;-61
2021/07/07 01:35:10;;;;;;;9.05;2.50;;;;;;;19.21;56.19;100682.25;4825898;29;20050;-61
2021/07/07 01:37:38;;;;;;;14.23;2.40;;;;;;;18.90;57.26;100685.25;4825635;29;20054;-60
2021/07/07 01:40:07;;;;;;;10.75;2.67;;;;;;;18.87;57.43;100691.59;4824740;29;20070;-61
2021/07/07 01:42:35;;;;;;;13.30;2.53;;;;;;;18.94;57.39;100692.53;4825874;29;20065;-60
2021/07/07 01:45:07;;;;;;;12.90;2.50;;;;;;;19.29;56.58;100694.34;4824526;29;20054;-62
2021/07/07 01:47:34;;;;;;;10.10;2.42;;;;;;;19.15;57.15;100692.13;4825087;29;20066;-61
2021/07/07 01:50:03;;;;;;;10.18;2.25;;;;;;;19.04;57.61;100703.09;4826553;29;20054;-62
2021/07/07 01:52:30;;;;;;;10.50;2.42;;;;;;;19.24;57.17;100697.47;4823874;29;20677;-63
2021/07/07 01:55:00;;;;;;;15.90;2.45;;;;;;;18.89;57.82;100705.97;4824250;29;20071;-61
2021/07/07 01:57:43;;;;;;;12.00;2.58;;;;;;;19.13;57.87;100702.84;4822724;29;20081;-60
2021/07/07 02:00:17;;;;;;;8.48;2.20;;;;;;;19.04;57.94;100696.69;4824985;29;20051;-61
2021/07/07 02:02:46;;;;;;;12.85;2.80;;;;;;;18.96;57.77;100692.16;4825621;29;20058;-63
2021/07/07 02:05:14;;;;;;;12.18;2.75;;;;;;;18.99;57.87;100695.03;4825265;29;20066;-61
2021/07/07 02:07:42;;;;;;;9.15;2.15;;;;;;;18.93;58.20;100685.31;4824659;29;20062;-61
2021/07/07 02:10:13;;;;;;;10.55;2.00;;;;;;;18.87;58.55;100692.41;4824762;29;20058;-61
2021/07/07 02:12:41;;;;;;;10.20;2.13;;;;;;;18.96;58.60;100692.97;4825114;29;20062;-60
2021/07/07 02:15:30;;;;;;;12.18;2.35;;;;;;;18.80;58.66;100685.88;4823618;29;20082;-62
2021/07/07 02:17:58;;;;;;;10.88;2.50;;;;;;;18.77;59.31;100700.56;4824320;29;20069;-60
2021/07/07 02:20:30;;;;;;;11.68;2.45;;;;;;;18.69;59.38;100694.03;4822884;29;20529;-60
2021/07/07 02:22:58;;;;;;;10.10;2.63;;;;;;;18.64;59.57;100696.31;4823513;29;20055;-61
2021/07/07 02:25:31;;;;;;;12.95;2.67;;;;;;;18.50;59.99;100684.84;4823271;29;20063;-62
2021/07/07 02:27:59;;;;;;;11.95;2.60;;;;;;;18.82;59.33;100691.88;4824513;29;20069;-60
2021/07/07 02:30:29;;;;;;;13.82;3.08;;;;;;;18.67;59.72;100690.78;4824711;29;20054;-62
2021/07/07 02:32:57;;;;;;;10.25;2.25;;;;;;;18.77;59.74;100693.00;4808240;29;20085;-60
2021/07/07 02:35:27;;;;;;;11.82;2.95;;;;;;;18.83;59.85;100693.50;4824935;29;20058;-60
2021/07/07 02:37:55;;;;;;;12.57;2.42;;;;;;;18.93;59.50;100685.31;4825123;29;20574;-61
2021/07/07 02:40:24;;;;;;;10.05;2.67;;;;;;;18.94;59.10;100689.75;4824758;29;20522;-63
2021/07/07 02:42:52;;;;;;;11.48;2.30;;;;;;;18.94;59.56;100700.91;4805822;29;20065;-61
2021/07/07 02:45:20;;;;;;;15.10;3.03;;;;;;;19.00;59.34;100704.22;4805617;29;20062;-61
2021/07/07 02:47:49;;;;;;;9.35;2.67;;;;;;;18.85;59.46;100696.72;4790826;29;20058;-60
2021/07/07 02:50:18;;;;;;;13.55;2.92;;;;;;;18.38;61.20;100694.16;4791005;29;20054;-61
2021/07/07 02:52:48;;;;;;;10.85;2.53;;;;;;;18.48;61.05;100699.16;4827545;29;20043;-62
2021/07/07 02:55:16;;;;;;;7.90;2.40;;;;;;;18.50;61.01;100705.19;4828634;29;20061;-60
2021/07/07 02:57:56;;;;;;;12.90;2.63;;;;;;;18.55;60.82;100692.94;4826695;29;20050;-62
2021/07/07 03:00:30;;;;;;;11.45;2.80;;;;;;;18.55;61.07;100699.31;4825893;29;20446;-60
2021/07/07 03:03:09;;;;;;;15.23;3.30;;;;;;;18.63;60.94;100701.09;4827763;29;20051;-62
2021/07/07 03:05:49;;;;;;;10.32;2.20;;;;;;;18.29;62.05;100707.50;4826183;29;20062;-63
2021/07/07 03:08:19;;;;;;;12.63;2.70;;;;;;;18.16;62.63;100703.22;4827573;29;20069;-61
2021/07/07 03:10:48;;;;;;;16.83;3.15;;;;;;;18.11;62.93;100711.88;4827366;29;20054;-61
2021/07/07 03:13:17;;;;;;;13.95;3.08;;;;;;;18.31;62.16;100707.13;4828444;29;20054;-60
2021/07/07 03:15:45;;;;;;;16.63;3.75;;;;;;;18.29;62.33;100707.50;4826557;29;20061;-61
2021/07/07 03:18:13;;;;;;;10.15;2.63;;;;;;;18.30;62.63;100705.53;4827924;29;20058;-61
2021/07/07 03:20:43;;;;;;;10.07;2.92;;;;;;;18.61;61.59;100702.63;4826686;29;20074;-61
2021/07/07 03:23:14;;;;;;;14.77;3.05;;;;;;;18.47;61.80;100707.91;4828058;29;20062;-62
2021/07/07 03:25:41;;;;;;;18.95;3.60;;;;;;;17.95;63.52;100709.13;4828165;29;20061;-62
2021/07/07 03:28:09;;;;;;;13.38;3.63;;;;;;;17.99;63.85;100704.44;4828390;29;20058;-68
2021/07/07 03:30:36;;;;;;;16.38;3.20;;;;;;;17.90;64.23;100719.75;4828366;29;20062;-66
2021/07/07 03:33:04;;;;;;;10.48;3.03;;;;;;;18.08;64.00;100718.16;4795698;29;20401;-61
2021/07/07 03:35:31;;;;;;;10.85;2.85;;;;;;;18.16;63.56;100716.34;4827161;29;20517;-61
2021/07/07 03:37:59;;;;;;;13.80;3.00;;;;;;;18.08;63.49;100718.16;4826270;29;20065;-62
2021/07/07 03:40:28;;;;;;;13.00;3.20;;;;;;;18.09;63.74;100711.44;4825844;29;20054;-61
2021/07/07 03:42:57;;;;;;;12.52;3.03;;;;;;;18.05;64.15;100726.44;4811496;29;20434;-61
2021/07/07 03:45:25;;;;;;;16.17;3.38;;;;;;;18.14;63.89;100727.88;4827079;29;20053;-60
2021/07/07 03:47:53;;;;;;;12.63;2.58;;;;;;;18.02;64.26;100725.22;4827139;29;20529;-60
2021/07/07 03:50:21;;;;;;;13.93;3.10;;;;;;;18.06;64.17;100725.28;4827024;29;20066;-60
2021/07/07 03:52:48;;;;;;;9.45;2.72;;;;;;;18.12;64.01;100726.59;4827051;29;20046;-61
2021/07/07 03:55:18;;;;;;;11.60;2.88;;;;;;;18.18;64.12;100728.78;4845616;29;20054;-61
2021/07/07 03:57:45;;;;;;;15.95;3.42;;;;;;;18.17;63.87;100732.72;4826277;29;20577;-61
2021/07/07 04:00:16;;;;;;;16.40;3.33;;;;;;;18.02;64.34;100727.19;4826567;29;20054;-62
2021/07/07 04:02:44;;;;;;;13.40;2.90;;;;;;;17.99;64.55;100726.72;4827316;29;20418;-61
2021/07/07 04:05:11;;;;;;;16.90;3.25;;;;;;;17.96;64.76;100721.06;4825696;29;20442;-62
2021/07/07 04:07:39;;;;;;;18.58;3.92;;;;;;;18.13;64.61;100733.81;4827112;29;20061;-61
2021/07/07 04:10:08;;;;;;;10.75;3.35;;;;;;;18.05;64.41;100727.25;4826452;29;20061;-61
2021/07/07 04:12:36;;;;;;;13.57;3.20;;;;;;;18.09;64.43;100732.91;4826621;29;20055;-60
2021/07/07 04:15:05;;;;;;;10.13;2.92;;;;;;;18.07;64.42;100738.88;4810571;29;20065;-62
2021/07/07 04:17:32;;;;;;;13.93;3.65;;;;;;;18.15;64.52;100739.84;4826719;29;20058;-61
2021/07/07 04:20:00;;;;;;;14.38;2.95;;;;;;;18.20;64.28;100745.91;4827202;29;20081;-63
2021/07/07 04:22:28;;;;;;;11.75;3.42;;;;;;;18.04;64.78;100755.50;4810572;29;20088;-60
2021/07/07 04:24:55;;;;;;;13.90;3.20;;;;;;;17.90;65.21;100753.97;4827443;29;20514;-61
2021/07/07 04:27:22;;;;;;;9.35;2.80;;;;;;;17.93;65.54;100755.25;4826495;29;20053;-61
2021/07/07 04:29:50;;;;;;;13.90;3.78;;;;;;;17.71;66.08;100769.84;4826655;29;20061;-61
2021/07/07 04:32:17;;;;;;;13.85;3.22;;;;;;;17.82;65.91;100766.13;4824896;29;20046;-62
2021/07/07 04:34:45;;;;;;;10.73;3.28;;;;;;;17.88;65.76;100775.03;4825773;29;20062;-60
2021/07/07 04:37:13;;;;;;;15.57;3.63;;;;;;;17.93;65.81;100778.34;4826827;29;20392;-61
2021/07/07 04:39:40;;;;;;;13.73;3.20;;;;;;;18.04;65.48;100781.41;4825155;29;20058;-65
2021/07/07 04:42:08;;;;;;;14.43;3.35;;;;;;;18.01;65.67;100784.09;4826362;29;20054;-62
2021/07/07 04:44:35;;;;;;;12.65;3.20;;;;;;;18.08;65.36;100781.50;4826960;29;20068;-61
2021/07/07 04:47:03;;;;;;;12.63;3.30;;;;;;;17.97;65.97;100782.03;4825104;29;20069;-64
2021/07/07 04:49:30;;;;;;;9.05;2.70;;;;;;;18.01;65.88;100784.91;4826148;29;20058;-60
2021/07/07 04:51:57;;;;;;;16.33;3.72;;;;;;;18.06;65.63;100797.78;4826181;29;20047;-60
2021/07/07 04:54:25;;;;;;;13.82;3.17;;;;;;;18.02;65.92;100792.09;4826857;29;20054;-62
2021/07/07 04:56:52;;;;;;;12.85;3.45;;;;;;;17.98;65.86;100797.59;4810211;29;20065;-61
2021/07/07 04:59:19;;;;;;;12.15;3.40;;;;;;;18.15;65.78;100792.81;4826380;29;20054;-60
2021/07/07 05:01:46;;;;;;;11.65;3.30;;;;;;;18.18;65.65;100806.03;4825541;29;20054;-61
2021/07/07 05:04:14;;;;;;;13.63;3.58;;;;;;;18.13;65.91;100798.75;4794712;29;20054;-62
2021/07/07 05:06:41;;;;;;;14.50;3.42;;;;;;;18.02;66.49;100796.88;4826249;29;20447;-62
2021/07/07 05:09:09;;;;;;;15.13;3.65;;;;;;;18.05;66.37;100807.28;4825182;29;20081;-61
2021/07/07 05:11:36;;;;;;;15.02;3.15;;;;;;;18.10;66.09;100805.03;4824429;29;20065;-61
2021/07/07 05:14:04;;;;;;;9.88;3.65;;;;;;;18.26;65.72;100796.63;4823441;29;20065;-61
2021/07/07 05:16:31;;;;;;;12.32;3.05;;;;;;;18.42;65.26;100803.84;4826493;29;20058;-61
2021/07/07 05:18:59;;;;;;;14.45;3.38;;;;;;;18.55;64.91;100804.53;4826404;29;20053;-62
2021/07/07 05:21:26;;;;;;;16.15;3.45;;;;;;;18.57;64.95;100807.75;4826751;29;20058;-61
2021/07/07 05:23:53;;;;;;;15.98;3.38;;;;;;;18.48;65.23;100816.31;4824767;29;20520;-61
2021/07/07 05:26:21;;;;;;;15.00;3.47;;;;;;;18.56;65.31;100809.75;4826721;29;20059;-61
2021/07/07 05:28:48;;;;;;;11.55;3.30;;;;;;;18.54;65.31;100819.66;4826937;29;20054;-61
2021/07/07 05:31:15;;;;;;;11.93;3.63;;;;;;;18.53;65.63;100818.03;4825091;29;20057;-60
2021/07/07 05:33:44;;;;;;;19.95;5.25;;;;;;;18.73;64.92;100812.13;4809052;29;20069;-61
2021/07/07 05:36:11;;;;;;;13.73;3.97;;;;;;;18.68;64.79;100815.19;4826201;29;20062;-61
2021/07/07 05:38:38;;;;;;;15.95;3.75;;;;;;;18.60;65.20;100818.19;4825847;29;20062;-60
2021/07/07 05:41:06;;;;;;;14.95;3.72;;;;;;;18.54;65.48;100814.88;4825778;29;20054;-65
2021/07/07 05:43:33;;;;;;;13.27;3.83;;;;;;;18.68;64.91;100819.97;4825655;29;20053;-62
2021/07/07 05:46:00;;;;;;;12.63;4.07;;;;;;;18.63;65.34;100826.66;4825355;29;20073;-61
2021/07/07 05:48:28;;;;;;;11.80;3.50;;;;;;;18.78;64.92;100817.41;4823638;29;20419;-61
2021/07/07 05:50:56;;;;;;;12.10;3.53;;;;;;;18.90;64.63;100822.03;4825586;29;20054;-61
2021/07/07 05:53:24;;;;;;;20.23;3.83;;;;;;;19.11;63.45;100828.06;4825109;29;20050;-61
2021/07/07 05:55:51;;;;;;;15.52;4.00;;;;;;;19.19;63.64;100818.66;4824838;29;20057;-61
2021/07/07 05:58:19;;;;;;;14.70;5.38;;;;;;;19.35;63.28;100827.81;4824713;29;20077;-62
2021/07/07 06:00:46;;;;;;;16.45;4.20;;;;;;;19.29;63.22;100828.41;4823568;29;20054;-62
2021/07/07 06:03:13;;;;;;;18.90;3.97;;;;;;;19.08;63.31;100835.19;4808422;29;20617;-61
2021/07/07 06:05:41;;;;;;;13.60;3.47;;;;;;;19.34;62.95;100842.94;4824819;29;20547;-62
2021/07/07 06:08:08;;;;;;;15.40;3.90;;;;;;;19.34;63.00;100840.13;4823873;29;20610;-62
2021/07/07 06:10:35;;;;;;;14.98;3.25;;;;;;;19.62;62.24;100845.44;4825189;29;20054;-62
2021/07/07 06:13:03;;;;;;;16.70;3.45;;;;;;;19.22;63.34;100845.84;4825207;29;20050;-62
2021/07/07 06:15:33;;;;;;;15.00;3.97;;;;;;;19.29;63.51;100848.78;4824207;29;20054;-62
2021/07/07 06:18:00;;;;;;;17.48;4.40;;;;;;;19.22;63.76;100847.81;4820556;29;20058;-61
2021/07/07 06:20:28;;;;;;;13.93;3.85;;;;;;;19.21;63.63;100846.22;4805413;29;20590;-60
2021/07/07 06:22:56;;;;;;;15.02;3.35;;;;;;;19.13;63.57;100852.81;4818170;29;20069;-62
2021/07/07 06:25:24;;;;;;;13.13;3.95;;;;;;;19.62;62.67;100842.66;4825131;29;20084;-61
2021/07/07 06:27:51;;;;;;;12.93;4.05;;;;;;;19.59;62.50;100851.78;4824755;29;20062;-60
2021/07/07 06:30:24;;;;;;;9.73;3.92;;;;;;;19.52;62.54;100857.25;4822082;29;20054;-61
2021/07/07 06:32:52;;;;;;;13.77;3.85;;;;;;;19.68;61.65;100847.56;4823539;29;20534;-62
2021/07/07 06:35:21;;;;;;;14.70;3.88;;;;;;;19.75;61.29;100852.50;4820960;29;20054;-62
2021/07/07 06:37:48;;;;;;;17.00;5.22;;;;;;;19.85;61.30;100852.69;4810492;29;20050;-61
2021/07/07 06:40:17;;;;;;;21.23;5.72;;;;;;;19.81;60.71;100851.81;4818132;29;20054;-62
2021/07/07 06:42:45;;;;;;;14.45;5.18;;;;;;;19.41;62.06;100864.59;4807254;29;20511;-62
2021/07/07 06:45:14;;;;;;;17.92;7.03;;;;;;;19.63;61.74;100861.84;4818844;29;20073;-62
2021/07/07 06:47:41;;;;;;;16.15;7.13;;;;;;;19.79;61.20;100861.72;4823805;29;20494;-62
2021/07/07 06:50:11;;;;;;;20.88;6.93;;;;;;;19.87;60.30;100864.31;4824306;29;20172;-61
2021/07/07 06:52:38;;;;;;;16.48;6.45;;;;;;;19.93;60.06;100860.00;4819149;29;20065;-61
2021/07/07 06:55:07;;;;;;;15.07;5.50;;;;;;;20.19;59.92;100869.69;4818808;29;20062;-61
2021/07/07 06:57:34;;;;;;;19.88;4.38;;;;;;;20.44;58.66;100866.09;4823107;29;20120;-61
2021/07/07 07:00:14;;;;;;;15.02;4.47;;;;;;;20.13;58.63;100867.16;4824243;29;20059;-62
2021/07/07 07:02:42;;;;;;;15.52;3.80;;;;;;;20.09;57.96;100871.88;4823176;29;20062;-63
2021/07/07 07:05:11;;;;;;;9.57;3.60;;;;;;;20.28;58.18;100875.81;4825097;29;20528;-60
2021/07/07 07:07:39;;;;;;;13.07;3.80;;;;;;;20.35;57.62;100878.72;4824455;29;20053;-60
2021/07/07 07:10:08;;;;;;;11.85;3.38;;;;;;;20.23;57.56;100874.13;4824294;29;20081;-62
2021/07/07 07:12:35;;;;;;;13.15;3.85;;;;;;;20.32;57.27;100891.47;4823638;29;20054;-62
2021/07/07 07:15:05;;;;;;;16.95;3.50;;;;;;;20.35;57.52;100885.13;4818193;29;20043;-61
2021/07/07 07:17:36;;;;;;;14.98;4.75;;;;;;;20.68;56.69;100881.63;4815228;29;20550;-62
2021/07/07 07:20:05;;;;;;;11.10;4.30;;;;;;;20.47;56.96;100884.91;4823070;29;20055;-61
2021/07/07 07:22:33;;;;;;;11.57;4.22;;;;;;;20.39;57.10;100893.56;4824555;29;20058;-62
2021/07/07 07:25:01;;;;;;;9.82;3.45;;;;;;;20.57;56.09;100900.28;4823486;29;20050;-61
2021/07/07 07:27:28;;;;;;;13.90;3.80;;;;;;;20.66;56.29;100892.44;4823467;29;20498;-62
2021/07/07 07:29:56;;;;;;;9.07;3.25;;;;;;;21.77;56.39;100889.50;4823013;29;20125;-62
2021/07/07 07:32:23;;;;;;;9.65;2.78;;;;;;;22.99;51.56;100891.75;4820671;29;20051;-48
2021/07/07 07:34:50;;;;;;;13.38;3.22;;;;;;;23.48;50.25;100899.63;4822399;29;20050;-45
2021/07/07 07:37:24;;;;;;;8.43;2.80;;;;;;;23.68;49.15;100895.28;4824375;29;20050;-46
2021/07/07 07:39:54;;;;;;;13.40;3.22;;;;;;;23.96;47.82;100898.16;4827028;29;20054;-45
2021/07/07 07:42:22;;;;;;;;;;;;;;;24.16;47.21;100907.06;4827296;29;20054;-47
2021/07/07 07:44:49;;;;;;;10.68;3.30;;;;;;;24.16;45.94;100904.25;4826493;29;20388;-45
2021/07/07 07:47:16;;;;;;;12.52;3.53;;;;;;;24.06;46.52;100908.66;4826760;29;20065;-44
2021/07/07 07:50:04;;;;;;;13.73;3.20;;;;;;;24.03;46.10;100898.19;4816610;29;20058;-45
2021/07/07 07:52:32;;;;;;;9.95;3.13;;;;;;;24.04;46.30;100899.00;4829469;29;20054;-44
2021/07/07 07:54:59;;;;;;;9.65;3.20;;;;;;;24.10;46.12;100903.84;4826474;29;20054;-44
2021/07/07 07:57:26;;;;;;;9.35;2.80;;;;;;;24.26;45.71;100911.88;4825551;29;20073;-45
2021/07/07 07:59:53;;;;;;;12.00;3.03;;;;;;;23.98;46.18;100907.00;4824566;29;20054;-47
2021/07/07 08:02:21;;;;;;;11.80;3.13;;;;;;;24.04;45.75;100911.06;4826744;29;20498;-44
2021/07/07 08:04:49;;;;;;;13.93;4.25;;;;;;;24.03;45.47;100908.63;4825009;29;20046;-46
2021/07/07 08:07:17;;;;;;;14.25;3.58;;;;;;;24.09;45.68;100907.88;4826532;29;20071;-44
2021/07/07 08:09:44;;;;;;;10.65;3.40;;;;;;;24.08;44.90;100902.63;4826724;29;20050;-45
2021/07/07 08:12:11;;;;;;;10.88;4.03;;;;;;;23.96;45.60;100917.03;4826614;29;20046;-44
2021/07/07 08:14:38;;;;;;;13.80;4.80;;;;;;;24.12;45.74;100917.50;4826216;29;20057;-43
2021/07/07 08:17:06;;;;;;;11.80;3.70;;;;;;;24.16;45.74;100918.31;4826826;29;20420;-43
2021/07/07 08:19:33;;;;;;;10.30;3.25;;;;;;;24.13;45.48;100924.75;4826386;29;20066;-43
2021/07/07 08:22:01;;;;;;;11.63;3.97;;;;;;;23.98;45.77;100921.06;4825962;29;20461;-42
2021/07/07 08:24:28;;;;;;;13.05;3.67;;;;;;;24.05;45.82;100917.50;4814439;29;20046;-45
2021/07/07 08:26:57;;;;;;;12.75;3.80;;;;;;;24.07;45.52;100929.97;4824517;29;20088;-45
2021/07/07 08:29:24;;;;;;;13.27;3.75;;;;;;;24.10;45.36;100920.72;4826482;29;20522;-45
2021/07/07 08:31:52;;;;;;;10.00;3.58;;;;;;;24.17;45.26;100920.72;4825682;29;20486;-46
2021/07/07 08:34:19;;;;;;;17.95;4.07;;;;;;;24.21;45.23;100924.38;4824067;29;20062;-43
2021/07/07 08:36:47;;;;;;;12.73;3.75;;;;;;;24.14;45.23;100924.34;4825851;29;20557;-48
2021/07/07 08:39:14;;;;;;;9.30;3.13;;;;;;;24.14;45.22;100929.16;4826143;29;20057;-43
2021/07/07 08:41:41;;;;;;;9.77;3.30;;;;;;;24.25;44.99;100939.22;4825632;29;20057;-47
2021/07/07 08:44:09;;;;;;;8.25;3.15;;;;;;;24.30;44.87;100938.81;4824887;29;20655;-42
2021/07/07 08:46:36;;;;;;;11.35;3.40;;;;;;;24.46;44.70;100941.28;4824545;29;20391;-42
2021/07/07 08:49:04;;;;;;;12.20;3.50;;;;;;;24.35;44.65;100930.00;4824521;29;20062;-44
2021/07/07 08:51:31;;;;;;;11.18;3.13;;;;;;;24.34;44.76;100936.03;4825794;29;20057;-45
2021/07/07 08:54:00;;;;;;;10.32;3.30;;;;;;;24.26;44.95;100940.84;4825838;29;20410;-41
2021/07/07 08:56:27;;;;;;;9.10;2.88;;;;;;;24.30;44.86;100941.66;4821992;29;20050;-44
2021/07/07 08:58:54;;;;;;;14.43;3.42;;;;;;;24.30;44.68;100940.88;4826252;29;20546;-42
2021/07/07 09:01:22;;;;;;;15.77;3.28;;;;;;;24.01;45.49;100937.19;4825749;29;20061;-43
2021/07/07 09:03:50;;;;;;;9.52;2.88;;;;;;;24.02;45.03;100946.44;4805676;29;20059;-43
2021/07/07 09:06:19;;;;;;;8.88;2.75;;;;;;;24.10;44.98;100937.59;4797122;29;20063;-44
2021/07/07 09:08:48;;;;;;;14.02;2.72;;;;;;;24.14;45.17;100943.25;4807592;29;20058;-42
2021/07/07 09:11:23;;;;;;;12.45;3.10;;;;;;;24.10;45.30;100948.88;4825082;29;20065;-44
2021/07/07 09:14:11;;;;;;;12.20;3.10;;;;;;;24.12;45.40;100945.66;4808153;29;20070;-43
2021/07/07 09:16:46;;;;;;;11.20;3.17;;;;;;;24.15;45.32;100951.28;4819653;29;20131;-43
2021/07/07 09:19:23;;;;;;;10.38;3.30;;;;;;;24.28;45.17;100955.34;4825861;29;20062;-45
2021/07/07 09:21:53;;;;;;;10.93;3.42;;;;;;;24.17;45.39;100953.69;4825537;29;20172;-45
2021/07/07 09:24:23;;;;;;;;;;;;;;;24.20;45.42;100953.69;4825134;29;20050;-42
2021/07/07 09:26:57;;;;;;;;;;;;;;;24.26;45.23;100956.94;4826628;29;20029;-43
2021/07/07 09:29:33;;;;;;;10.13;3.40;;;;;;;24.34;45.18;100959.34;4824231;29;19924;-45
2021/07/07 09:32:14;;;;;;;8.20;3.78;;;;;;;24.48;44.82;100961.38;4824691;29;20062;-43
2021/07/07 09:34:43;;;;;;;8.82;3.22;;;;;;;24.44;44.89;100964.19;4819851;29;20058;-43
2021/07/07 09:37:21;;;;;;;10.75;3.47;;;;;;;24.37;44.83;100955.72;4825117;29;20053;-44
2021/07/07 09:39:49;;;;;;;10.90;3.33;;;;;;;24.31;45.07;100962.16;4816770;29;20054;-42
2021/07/07 09:42:30;;;;;;;10.13;3.72;;;;;;;24.24;45.49;100962.16;4824274;29;20058;-48
2021/07/07 09:44:59;;;;;;;11.05;2.88;;;;;;;24.32;45.10;100967.41;4821371;29;20058;-41
2021/07/07 09:47:27;;;;;;;14.02;4.13;;;;;;;24.48;44.29;100959.38;4817031;29;20508;-43
2021/07/07 09:49:56;;;;;;;9.80;3.58;;;;;;;24.38;44.90;100960.19;4819772;29;20050;-44
2021/07/07 09:52:28;;;;;;;12.73;4.25;;;;;;;24.41;45.18;100959.38;4809157;29;20438;-44
2021/07/07 09:54:56;;;;;;;14.75;4.13;;;;;;;24.28;45.17;100957.34;4829469;29;20054;-46
2021/07/07 09:57:24;;;;;;;8.90;3.50;;;;;;;24.40;45.19;100965.41;4823866;29;20050;-45
2021/07/07 09:59:51;;;;;;;11.65;3.65;;;;;;;24.43;44.80;100962.59;4823293;29;20071;-46
2021/07/07 10:02:19;;;;;;;11.68;4.53;;;;;;;24.46;44.88;100961.00;4823349;29;20069;-45
2021/07/07 10:04:47;;;;;;;11.23;4.22;;;;;;;24.58;44.67;100963.41;4821259;29;20631;-45
2021/07/07 10:07:14;;;;;;;13.07;4.90;;;;;;;24.59;45.13;100961.38;4819647;29;20051;-46
2021/07/07 10:09:45;;;;;;;8.73;3.53;;;;;;;24.61;45.19;100970.25;4820628;29;20054;-45
2021/07/07 10:12:13;;;;;;;12.07;3.80;;;;;;;24.62;45.16;100969.03;4823261;29;20058;-46
2021/07/07 10:14:41;;;;;;;12.25;4.03;;;;;;;24.62;45.13;100971.88;4820886;29;20054;-46
2021/07/07 10:17:09;;;;;;;13.15;3.70;;;;;;;24.57;45.57;100975.06;4821306;29;20058;-46
2021/07/07 10:19:37;;;;;;;14.48;4.97;;;;;;;24.57;45.45;100972.25;4792151;29;20058;-45
2021/07/07 10:22:06;;;;;;;12.15;3.72;;;;;;;24.67;45.35;100965.81;4805011;29;20061;-50
2021/07/07 10:24:34;;;;;;;13.13;4.22;;;;;;;24.66;45.34;100967.00;4822622;29;20074;-45
2021/07/07 10:27:03;;;;;;;11.77;3.60;;;;;;;24.66;45.53;100972.66;4818942;29;20164;-46
2021/07/07 10:29:30;;;;;;;11.80;3.57;;;;;;;24.53;45.57;100967.41;4821619;29;20054;-46
2021/07/07 10:32:00;;;;;;;11.32;3.60;;;;;;;24.52;45.78;100962.19;4822385;29;20046;-45
2021/07/07 10:34:28;;;;;;;12.55;3.40;;;;;;;24.59;45.55;100969.81;4819974;29;20053;-44
2021/07/07 10:36:57;;;;;;;10.88;3.47;;;;;;;24.67;45.36;100960.19;4822621;29;20051;-45
2021/07/07 10:39:25;;;;;;;20.52;5.80;;;;;;;24.65;45.43;100954.97;4820729;29;20061;-47
2021/07/07 10:42:02;;;;;;;14.45;3.92;;;;;;;24.65;45.34;100954.97;4821764;29;20056;-46
2021/07/07 10:44:35;;;;;;;15.02;4.00;;;;;;;24.75;45.24;100951.34;4820431;29;20071;-46
2021/07/07 10:47:12;;;;;;;12.45;4.28;;;;;;;24.65;45.13;100951.31;4820821;29;20070;-47
2021/07/07 10:49:47;;;;;;;12.40;4.20;;;;;;;24.65;44.44;100948.50;4821311;29;20054;-47
2021/07/07 10:52:31;;;;;;;12.57;3.75;;;;;;;24.64;45.79;100946.88;4821152;29;20057;-45
2021/07/07 10:55:01;;;;;;;16.02;4.00;;;;;;;24.64;45.65;100944.06;4820545;29;20050;-47
2021/07/07 10:57:38;;;;;;;12.20;3.78;;;;;;;24.76;44.99;100949.34;4821218;29;20046;-46
2021/07/07 11:00:31;;;;;;;8.88;3.28;;;;;;;24.91;44.53;100960.19;4836016;29;20058;-47
2021/07/07 11:03:35;;;;;;;7.80;3.10;;;;;;;25.00;44.06;100954.16;4815490;29;20073;-46
2021/07/07 11:06:23;;;;;;;18.92;6.28;;;;;;;25.18;49.60;100955.72;4821501;29;20054;-50
2021/07/07 11:08:53;;;;;;;14.85;5.03;;;;;;;25.37;47.31;100965.75;4819708;29;20083;-46
2021/07/07 11:11:23;;;;;;;11.60;4.20;;;;;;;25.34;46.44;100961.72;4820108;29;20059;-46
2021/07/07 11:13:51;;;;;;;13.82;4.15;;;;;;;25.38;46.17;100965.38;4824558;29;20062;-47
2021/07/07 11:16:24;;;;;;;10.55;3.50;;;;;;;25.35;45.10;100974.59;4825129;29;20050;-46
2021/07/07 11:18:51;;;;;;;8.88;4.00;;;;;;;25.31;44.85;100971.00;4825200;29;20039;-46
2021/07/07 11:21:19;;;;;;;9.05;3.42;;;;;;;25.25;44.75;100978.25;4825587;29;20065;-46
2021/07/07 11:23:48;;;;;;;8.27;3.22;;;;;;;25.18;44.79;100969.81;4824743;29;20067;-47
2021/07/07 11:26:17;;;;;;;8.00;3.22;;;;;;;25.11;44.62;100981.09;4824588;29;20552;-46
2021/07/07 11:28:44;;;;;;;13.07;3.37;;;;;;;25.07;44.91;100987.97;4825314;29;20543;-46